Time;durP1;ratioP1;P1;durP2;ratioP2;P2;SDS_P1;SDS_P2;PMS_P1;PMS_P2;Temp;Humidity;BMP_temperature;BMP_pressure;BME280_temperature;BME280_humidity;BME280_pressure;Samples;Min_cycle;Max_cycle;Signal;HPM_P1;HPM_P2
2021/04/12 00:00:06;;;;;;;9.82;7.82;;;7.00;97.60;;;;;;5070076;28;20184;-60
2021/04/12 00:03:00;;;;;;;9.85;7.70;;;6.90;99.90;;;;;;5069540;28;20225;-61
2021/04/12 00:05:41;;;;;;;10.75;8.45;;;6.90;99.90;;;;;;5053936;28;20249;-61
2021/04/12 00:08:34;;;;;;;12.27;9.27;;;6.90;99.90;;;;;;5070469;28;20178;-60
2021/04/12 00:11:11;;;;;;;11.70;9.00;;;6.90;99.90;;;;;;5061729;28;20685;-60
2021/04/12 00:13:53;;;;;;;11.25;8.48;;;6.90;99.90;;;;;;5062727;28;20613;-60
2021/04/12 00:16:29;;;;;;;10.60;8.23;;;6.80;99.90;;;;;;5070219;28;20190;-61
2021/04/12 00:19:21;;;;;;;10.00;8.35;;;6.80;99.90;;;;;;5059917;28;20279;-60
2021/04/12 00:22:03;;;;;;;9.35;7.85;;;6.80;99.90;;;;;;5064142;28;20185;-60
2021/04/12 00:25:03;;;;;;;9.82;8.15;;;6.70;97.80;;;;;;5066918;28;20624;-59
2021/04/12 00:27:33;;;;;;;10.52;8.32;;;6.70;94.20;;;;;;5041476;28;20816;-60
2021/04/12 00:30:23;;;;;;;11.02;8.65;;;6.50;95.60;;;;;;5068072;28;20227;-60
2021/04/12 00:32:55;;;;;;;10.57;8.75;;;6.50;99.80;;;;;;5058654;28;20278;-60
2021/04/12 00:35:59;;;;;;;10.40;7.72;;;6.50;99.90;;;;;;5064651;28;20666;-60
2021/04/12 00:38:38;;;;;;;10.60;7.68;;;6.50;99.90;;;;;;5068189;28;20213;-60
2021/04/12 00:41:07;;;;;;;11.07;8.15;;;6.50;99.90;;;;;;5068792;28;20182;-60
2021/04/12 00:43:56;;;;;;;9.20;8.20;;;6.50;93.00;;;;;;5069698;28;20170;-59
2021/04/12 00:46:37;;;;;;;10.35;7.88;;;6.50;84.90;;;;;;5066669;28;20182;-60
2021/04/12 00:49:22;;;;;;;10.15;7.95;;;6.50;72.60;;;;;;5068713;28;20284;-60
2021/04/12 00:52:22;;;;;;;9.25;7.75;;;6.40;76.60;;;;;;5068670;28;20731;-60
2021/04/12 00:55:07;;;;;;;10.65;8.45;;;6.50;67.10;;;;;;5065860;28;21078;-60
2021/04/12 00:57:35;;;;;;;8.82;7.32;;;6.40;63.50;;;;;;5062802;28;20262;-59
2021/04/12 01:00:16;;;;;;;10.90;8.57;;;6.40;57.30;;;;;;5066640;28;20186;-61
2021/04/12 01:03:16;;;;;;;9.18;7.20;;;6.40;60.10;;;;;;5067659;28;20237;-61
2021/04/12 01:06:07;;;;;;;8.82;7.03;;;6.40;56.50;;;;;;5070938;28;20234;-60
2021/04/12 01:09:07;;;;;;;8.68;6.65;;;6.40;46.90;;;;;;5059844;28;20201;-61
2021/04/12 01:11:45;;;;;;;8.10;6.70;;;6.40;40.90;;;;;;5062899;28;20182;-60
2021/04/12 01:14:41;;;;;;;8.25;6.82;;;6.40;48.30;;;;;;5071469;28;20702;-61
2021/04/12 01:17:38;;;;;;;9.52;7.57;;;6.40;53.30;;;;;;5070297;28;20189;-59
2021/04/12 01:20:41;;;;;;;8.50;7.40;;;6.30;45.50;;;;;;5067926;28;20193;-59
2021/04/12 01:23:37;;;;;;;8.82;7.00;;;6.30;51.80;;;;;;5070296;28;20958;-60
2021/04/12 01:26:40;;;;;;;7.70;6.28;;;6.20;63.90;;;;;;5076848;28;20247;-60
2021/04/12 01:29:43;;;;;;;6.95;5.72;;;6.10;56.20;;;;;;5066654;28;20795;-60
2021/04/12 01:32:46;;;;;;;7.45;6.15;;;6.10;54.50;;;;;;5071707;28;20188;-60
2021/04/12 01:35:49;;;;;;;6.75;5.32;;;6.00;57.80;;;;;;5067881;28;20185;-60
2021/04/12 01:38:32;;;;;;;7.95;6.30;;;6.10;56.20;;;;;;5064356;28;20193;-60
2021/04/12 01:41:39;;;;;;;6.95;5.53;;;6.10;68.20;;;;;;5069847;28;20177;-61
2021/04/12 01:44:33;;;;;;;6.35;5.50;;;6.00;91.20;;;;;;5067680;28;20262;-60
2021/04/12 01:47:08;;;;;;;7.35;5.93;;;6.00;95.70;;;;;;5070666;28;20200;-60
2021/04/12 01:49:55;;;;;;;7.95;6.53;;;6.00;98.60;;;;;;5068926;28;20264;-60
2021/04/12 01:52:30;;;;;;;7.25;5.70;;;5.90;94.70;;;;;;5083290;28;20189;-60
2021/04/12 01:55:20;;;;;;;8.13;6.07;;;5.90;92.10;;;;;;5079060;28;20192;-60
2021/04/12 01:58:08;;;;;;;7.70;5.97;;;5.90;91.70;;;;;;5070145;28;20254;-60
2021/04/12 02:01:02;;;;;;;6.85;5.60;;;5.80;93.40;;;;;;5062134;28;20200;-60
2021/04/12 02:03:38;;;;;;;6.80;5.78;;;5.80;92.10;;;;;;5070900;28;20247;-61
2021/04/12 02:06:39;;;;;;;6.38;5.40;;;5.80;90.60;;;;;;5071096;28;20299;-60
2021/04/12 02:09:27;;;;;;;6.88;5.35;;;5.80;79.00;;;;;;5046877;28;20216;-61
2021/04/12 02:12:26;;;;;;;6.30;5.30;;;5.80;78.10;;;;;;5065661;28;20500;-60
2021/04/12 02:14:55;;;;;;;6.10;5.30;;;5.80;72.40;;;;;;5073077;28;20912;-61
2021/04/12 02:17:53;;;;;;;7.57;5.72;;;5.80;73.30;;;;;;5069482;28;20193;-60
2021/04/12 02:20:46;;;;;;;5.90;5.07;;;5.80;72.30;;;;;;5069478;28;20674;-59
2021/04/12 02:23:29;;;;;;;6.25;5.50;;;5.70;73.00;;;;;;5069586;28;20520;-60
2021/04/12 02:26:18;;;;;;;6.38;5.35;;;5.80;75.80;;;;;;5065037;28;20270;-61
2021/04/12 02:29:03;;;;;;;7.65;5.70;;;5.70;84.80;;;;;;5060094;28;20607;-60
2021/04/12 02:31:40;;;;;;;7.72;5.72;;;5.60;97.10;;;;;;5070427;28;20230;-60
2021/04/12 02:34:19;;;;;;;7.75;6.22;;;5.60;99.40;;;;;;5070547;28;20188;-61
2021/04/12 02:36:47;;;;;;;8.02;5.88;;;5.60;99.90;;;;;;5063119;28;20181;-60
2021/04/12 02:40:00;;;;;;;7.55;5.90;;;5.60;99.90;;;;;;5065780;28;20551;-60
2021/04/12 02:42:49;;;;;;;7.55;5.80;;;5.50;99.90;;;;;;5070856;28;20630;-60
2021/04/12 02:45:33;;;;;;;6.47;5.70;;;5.50;99.90;;;;;;5060229;28;20201;-61
2021/04/12 02:48:19;;;;;;;7.78;5.43;;;5.50;99.90;;;;;;5069349;28;20184;-60
2021/04/12 02:50:53;;;;;;;7.00;5.75;;;5.40;99.90;;;;;;5067346;28;20183;-60
2021/04/12 02:53:22;;;;;;;8.05;5.60;;;5.40;99.90;;;;;;5067107;28;20197;-60
2021/04/12 02:56:05;;;;;;;7.43;5.32;;;5.40;99.90;;;;;;5069273;28;20693;-60
2021/04/12 02:59:05;;;;;;;5.82;5.18;;;5.30;99.90;;;;;;5071198;28;20203;-60
2021/04/12 03:01:52;;;;;;;7.55;5.65;;;5.20;99.90;;;;;;5070521;28;20224;-60
2021/04/12 03:04:51;;;;;;;7.90;6.30;;;5.20;99.90;;;;;;5064244;28;20205;-59
2021/04/12 03:07:31;;;;;;;6.97;6.00;;;5.20;99.90;;;;;;5068036;28;20181;-60
2021/04/12 03:10:10;;;;;;;7.25;6.22;;;5.10;99.90;;;;;;5070213;28;20979;-59
2021/04/12 03:12:45;;;;;;;6.45;5.20;;;5.10;99.90;;;;;;5077091;28;20891;-59
2021/04/12 03:15:19;;;;;;;7.47;5.65;;;5.10;99.90;;;;;;5074011;28;20181;-60
2021/04/12 03:17:56;;;;;;;7.45;5.70;;;5.00;99.90;;;;;;5068859;28;20255;-60
2021/04/12 03:20:38;;;;;;;9.00;6.95;;;5.00;99.90;;;;;;5069342;28;20205;-59
2021/04/12 03:23:10;;;;;;;7.80;6.13;;;4.90;99.90;;;;;;5068213;28;20189;-60
2021/04/12 03:25:59;;;;;;;7.85;6.55;;;5.00;99.90;;;;;;5067706;28;20194;-61
2021/04/12 03:28:33;;;;;;;7.53;5.80;;;4.90;99.90;;;;;;5069631;28;20560;-60
2021/04/12 03:31:19;;;;;;;11.25;7.07;;;4.90;99.90;;;;;;5069592;28;20197;-59
2021/04/12 03:34:04;;;;;;;7.55;6.03;;;4.90;99.90;;;;;;5071549;28;20173;-60
2021/04/12 03:36:29;;;;;;;8.65;6.05;;;4.90;99.90;;;;;;5059681;28;20771;-60
2021/04/12 03:38:57;;;;;;;9.00;6.27;;;4.90;99.90;;;;;;5069372;28;20184;-60
2021/04/12 03:41:45;;;;;;;8.40;6.25;;;4.80;99.90;;;;;;5068748;28;20193;-60
2021/04/12 03:44:30;;;;;;;7.57;6.03;;;4.70;99.90;;;;;;5067012;28;20265;-60
2021/04/12 03:47:23;;;;;;;7.20;6.00;;;4.70;99.90;;;;;;5062602;28;20219;-61
2021/04/12 03:50:06;;;;;;;8.70;6.82;;;4.70;99.90;;;;;;5065890;28;20173;-61
2021/04/12 03:52:57;;;;;;;8.68;7.07;;;4.70;99.90;;;;;;5067426;28;20222;-60
2021/04/12 03:55:42;;;;;;;8.43;6.57;;;4.60;99.90;;;;;;5069686;28;20636;-61
2021/04/12 03:58:19;;;;;;;8.60;6.97;;;4.60;99.90;;;;;;5067524;28;20212;-60
2021/04/12 04:00:57;;;;;;;9.10;7.07;;;4.70;99.90;;;;;;5068382;28;20189;-60
2021/04/12 04:03:25;;;;;;;9.13;6.50;;;4.60;99.90;;;;;;5064614;28;20189;-61
2021/04/12 04:06:06;;;;;;;15.32;6.78;;;4.60;99.90;;;;;;5067286;28;20255;-60
2021/04/12 04:08:58;;;;;;;9.30;6.93;;;4.60;99.90;;;;;;5076003;28;20176;-64
2021/04/12 04:11:32;;;;;;;8.80;5.50;;;4.60;99.90;;;;;;5068823;28;20216;-63
2021/04/12 04:14:01;;;;;;;7.45;5.53;;;4.60;99.90;;;;;;5068039;28;20532;-62
2021/04/12 04:16:38;;;;;;;8.50;5.85;;;4.60;99.90;;;;;;5061099;28;20177;-62
2021/04/12 04:19:47;;;;;;;6.35;5.55;;;4.60;99.90;;;;;;5059709;28;20181;-63
2021/04/12 04:22:41;;;;;;;8.63;6.10;;;4.60;99.90;;;;;;5058747;28;20181;-62
2021/04/12 04:25:16;;;;;;;6.70;6.00;;;4.60;99.90;;;;;;5060079;28;20236;-64
2021/04/12 04:28:12;;;;;;;8.07;5.93;;;4.50;99.90;;;;;;5058815;28;20193;-64
2021/04/12 04:30:49;;;;;;;8.90;6.35;;;4.50;99.90;;;;;;5059185;28;20187;-64
2021/04/12 04:33:29;;;;;;;7.75;5.25;;;4.40;99.90;;;;;;5057386;28;20300;-62
2021/04/12 04:36:06;;;;;;;8.25;5.32;;;4.40;99.90;;;;;;5062872;28;20259;-64
2021/04/12 04:39:02;;;;;;;10.82;5.90;;;4.40;99.90;;;;;;5067118;28;20181;-63
2021/04/12 04:41:48;;;;;;;6.93;5.25;;;4.50;99.90;;;;;;5069155;28;20196;-63
2021/04/12 04:44:34;;;;;;;7.80;5.40;;;4.40;99.90;;;;;;5068523;28;20659;-64
2021/04/12 04:47:21;;;;;;;7.05;5.22;;;4.40;99.90;;;;;;5067908;28;20192;-63
2021/04/12 04:50:04;;;;;;;6.75;5.10;;;4.30;99.90;;;;;;5069065;28;20208;-63
2021/04/12 04:52:48;;;;;;;7.00;5.10;;;4.30;99.90;;;;;;5068140;28;20192;-64
2021/04/12 04:55:43;;;;;;;5.55;4.75;;;4.30;99.90;;;;;;5068257;28;20258;-65
2021/04/12 04:58:33;;;;;;;5.95;4.55;;;4.20;99.90;;;;;;5059388;28;20177;-64
2021/04/12 05:01:08;;;;;;;7.35;5.40;;;4.20;99.90;;;;;;5066649;28;20639;-63
2021/04/12 05:04:07;;;;;;;8.18;5.47;;;4.10;99.90;;;;;;5068369;28;20231;-64
2021/04/12 05:06:38;;;;;;;5.90;3.92;;;4.10;99.90;;;;;;5059038;28;20315;-64
2021/04/12 05:09:26;;;;;;;7.03;5.05;;;4.10;99.90;;;;;;5068312;28;20592;-64
2021/04/12 05:12:15;;;;;;;7.03;5.15;;;4.00;99.90;;;;;;5068280;28;20166;-62
2021/04/12 05:15:08;;;;;;;5.80;4.70;;;4.10;99.90;;;;;;5067182;28;20185;-63
2021/04/12 05:18:08;;;;;;;6.07;4.50;;;4.00;99.90;;;;;;5067917;28;20491;-62
2021/04/12 05:21:13;;;;;;;6.40;4.90;;;3.90;99.90;;;;;;5068863;28;20178;-64
2021/04/12 05:24:00;;;;;;;5.85;4.30;;;3.70;99.90;;;;;;5068392;28;20272;-63
2021/04/12 05:26:44;;;;;;;6.30;4.95;;;3.50;99.90;;;;;;5069145;28;20185;-63
2021/04/12 05:29:40;;;;;;;5.32;4.30;;;3.30;99.90;;;;;;5067634;28;20181;-64
2021/04/12 05:32:20;;;;;;;6.75;4.70;;;3.10;99.90;;;;;;5068456;28;20222;-64
2021/04/12 05:35:12;;;;;;;8.82;4.50;;;2.90;99.90;;;;;;5048803;28;20189;-62
2021/04/12 05:37:51;;;;;;;7.55;4.78;;;2.80;99.90;;;;;;5068656;28;20226;-64
2021/04/12 05:40:43;;;;;;;7.05;4.70;;;2.70;99.90;;;;;;5065459;28;20215;-64
2021/04/12 05:43:30;;;;;;;6.75;4.88;;;2.70;99.90;;;;;;5067778;28;20520;-64
2021/04/12 05:46:30;;;;;;;7.60;5.15;;;2.70;99.90;;;;;;5068585;28;20219;-64
2021/04/12 05:49:27;;;;;;;7.85;5.10;;;2.70;99.90;;;;;;5067641;28;20188;-64
2021/04/12 05:52:10;;;;;;;8.43;4.90;;;2.70;99.90;;;;;;5071374;28;20176;-64
2021/04/12 05:54:36;;;;;;;8.38;6.05;;;2.70;99.90;;;;;;5052286;28;20667;-63
2021/04/12 05:57:14;;;;;;;7.60;5.43;;;2.70;99.90;;;;;;5052360;28;20177;-64
2021/04/12 06:00:25;;;;;;;8.90;5.68;;;2.80;99.90;;;;;;5064118;28;20344;-63
2021/04/12 06:03:14;;;;;;;8.20;5.82;;;2.80;99.90;;;;;;5048100;28;20240;-63
2021/04/12 06:06:12;;;;;;;8.55;6.13;;;2.90;99.90;;;;;;5072125;28;20199;-70
2021/04/12 06:08:58;;;;;;;9.05;6.25;;;2.90;99.90;;;;;;5070019;28;20181;-71
2021/04/12 06:11:39;;;;;;;6.85;4.85;;;3.00;99.90;;;;;;5068764;28;21352;-71
2021/04/12 06:14:41;;;;;;;8.43;5.90;;;3.10;99.90;;;;;;5067808;28;20528;-76
2021/04/12 06:17:35;;;;;;;8.68;6.03;;;3.10;99.90;;;;;;5071507;28;20234;-77
2021/04/12 06:20:46;;;;;;;8.68;5.43;;;3.10;99.90;;;;;;5070831;28;20283;-77
2021/04/12 06:23:36;;;;;;;8.80;6.15;;;3.10;99.90;;;;;;5071388;28;20937;-76
2021/04/12 06:26:22;;;;;;;8.98;6.20;;;3.20;99.90;;;;;;5071259;28;20678;-77
2021/04/12 06:28:57;;;;;;;7.50;5.72;;;3.20;99.90;;;;;;5071449;28;21005;-68
2021/04/12 06:31:53;;;;;;;7.80;5.90;;;3.20;99.90;;;;;;5071205;28;20199;-68
2021/04/12 06:34:24;;;;;;;8.57;6.45;;;3.10;99.90;;;;;;5071012;28;20173;-67
2021/04/12 06:37:12;;;;;;;7.88;5.57;;;3.10;99.90;;;;;;5073380;28;20188;-67
2021/04/12 06:39:48;;;;;;;7.90;5.72;;;3.00;99.90;;;;;;5062487;28;20177;-67
2021/04/12 06:42:25;;;;;;;8.80;6.25;;;3.00;99.90;;;;;;5068214;28;20210;-76
2021/04/12 06:45:06;;;;;;;9.00;6.45;;;3.00;99.90;;;;;;5066220;28;20215;-77
2021/04/12 06:47:56;;;;;;;8.18;6.45;;;3.00;99.90;;;;;;5057411;28;20183;-76
2021/04/12 06:50:43;;;;;;;8.35;6.15;;;3.00;99.90;;;;;;5069150;28;20642;-76
2021/04/12 06:53:53;;;;;;;7.93;6.18;;;3.10;99.90;;;;;;5068939;28;20172;-77
2021/04/12 06:56:21;;;;;;;7.43;5.65;;;3.20;99.90;;;;;;5067852;28;20185;-76
2021/04/12 06:59:24;;;;;;;9.52;7.13;;;3.20;99.90;;;;;;5069677;28;20172;-76
2021/04/12 07:02:15;;;;;;;9.20;5.93;;;3.30;99.90;;;;;;5064789;28;20220;-76
2021/04/12 07:05:01;;;;;;;8.20;6.47;;;3.30;99.90;;;;;;5058039;28;20206;-68
2021/04/12 07:07:51;;;;;;;8.20;6.53;;;3.30;99.90;;;;;;5056776;28;20186;-71
2021/04/12 07:10:45;;;;;;;9.15;6.05;;;3.30;99.90;;;;;;5056291;28;20223;-71
2021/04/12 07:13:35;;;;;;;9.02;6.15;;;3.20;99.90;;;;;;5082062;28;20296;-76
2021/04/12 07:16:22;;;;;;;7.40;5.70;;;3.30;99.90;;;;;;5075694;28;20182;-76
2021/04/12 07:19:25;;;;;;;8.95;6.20;;;3.40;99.90;;;;;;5065147;28;20749;-71
2021/04/12 07:22:18;;;;;;;6.97;5.55;;;3.30;99.90;;;;;;5066556;28;20195;-71
2021/04/12 07:25:19;;;;;;;9.15;6.00;;;3.30;99.90;;;;;;5054826;28;20215;-70
2021/04/12 07:28:19;;;;;;;8.38;6.30;;;3.30;99.90;;;;;;5068895;28;20528;-72
2021/04/12 07:31:21;;;;;;;8.35;5.93;;;3.40;99.90;;;;;;5071094;28;20177;-72
2021/04/12 07:34:18;;;;;;;8.07;5.72;;;3.40;99.90;;;;;;5059602;28;20176;-73
2021/04/12 07:36:56;;;;;;;7.95;6.55;;;3.50;99.90;;;;;;5068997;28;20189;-72
2021/04/12 07:39:49;;;;;;;8.43;6.32;;;3.50;99.90;;;;;;5069817;28;20203;-72
2021/04/12 07:42:28;;;;;;;8.68;5.93;;;3.60;99.90;;;;;;5068355;28;20256;-72
2021/04/12 07:45:31;;;;;;;8.15;5.95;;;3.60;99.90;;;;;;5066944;28;20201;-77
2021/04/12 07:48:34;;;;;;;10.02;6.35;;;3.60;99.90;;;;;;5062805;28;20254;-71
2021/04/12 07:51:37;;;;;;;9.15;6.15;;;3.60;99.90;;;;;;5060676;28;20188;-73
2021/04/12 07:54:40;;;;;;;8.90;5.72;;;3.70;99.90;;;;;;5058112;28;20624;-70
2021/04/12 07:57:29;;;;;;;7.88;5.78;;;3.80;99.90;;;;;;5035263;28;20197;-76
2021/04/12 08:00:22;;;;;;;5.88;4.70;;;3.80;99.90;;;;;;5064022;28;20691;-73
2021/04/12 08:03:14;;;;;;;7.00;5.03;;;3.80;99.90;;;;;;5067900;28;20278;-78
2021/04/12 08:06:01;;;;;;;6.15;4.55;;;3.80;99.90;;;;;;5051871;28;20237;-72
2021/04/12 08:08:46;;;;;;;6.38;5.10;;;3.70;99.90;;;;;;5055757;28;20177;-76
2021/04/12 08:11:47;;;;;;;6.43;4.95;;;3.60;99.90;;;;;;5052723;28;20177;-77
2021/04/12 08:15:04;;;;;;;8.20;5.20;;;3.60;99.90;;;;;;5066720;28;20177;-61
2021/04/12 08:18:13;;;;;;;6.25;4.65;;;3.60;99.90;;;;;;5061726;28;20182;-68
2021/04/12 08:21:13;;;;;;;6.63;4.70;;;3.60;99.90;;;;;;5051984;28;20285;-62
2021/04/12 08:23:42;;;;;;;7.97;5.95;;;3.60;99.90;;;;;;5063434;28;20188;-61
2021/04/12 08:26:54;;;;;;;6.30;5.25;;;3.60;99.90;;;;;;5067619;28;20212;-61
2021/04/12 08:30:05;;;;;;;5.90;4.30;;;3.60;99.90;;;;;;5059847;28;20219;-62
2021/04/12 08:32:42;;;;;;;6.75;4.75;;;3.70;99.90;;;;;;5079355;28;20177;-61
2021/04/12 08:35:14;;;;;;;5.90;4.68;;;3.80;99.90;;;;;;5068329;28;20235;-61
2021/04/12 08:38:31;;;;;;;5.65;4.63;;;3.90;99.90;;;;;;5067208;28;20177;-62
2021/04/12 08:41:31;;;;;;;4.43;3.67;;;4.00;99.90;;;;;;5055853;28;20201;-61
2021/04/12 08:44:14;;;;;;;5.60;4.60;;;4.10;99.90;;;;;;5066815;28;20263;-62
2021/04/12 08:47:10;;;;;;;3.83;3.17;;;4.10;99.90;;;;;;5068027;28;20782;-61
2021/04/12 08:49:55;;;;;;;4.40;3.60;;;4.10;99.90;;;;;;5066906;28;20189;-62
2021/04/12 08:52:43;;;;;;;5.00;3.80;;;4.10;99.90;;;;;;5067482;28;20177;-62
2021/04/12 08:55:36;;;;;;;4.95;4.00;;;4.10;99.90;;;;;;5068578;28;20192;-61
2021/04/12 08:58:39;;;;;;;5.93;4.05;;;4.10;99.90;;;;;;5063742;28;20536;-62
2021/04/12 09:01:24;;;;;;;4.00;3.60;;;4.20;99.90;;;;;;5066561;28;20220;-60
2021/04/12 09:04:18;;;;;;;5.07;3.80;;;4.30;99.90;;;;;;5068364;28;20185;-61
2021/04/12 09:06:55;;;;;;;6.10;4.75;;;4.40;99.90;;;;;;5068044;28;20235;-61
2021/04/12 09:09:48;;;;;;;6.13;4.97;;;4.40;99.90;;;;;;5065347;28;20251;-61
2021/04/12 09:12:26;;;;;;;6.53;4.65;;;4.40;99.90;;;;;;5066567;28;20736;-61
2021/04/12 09:14:57;;;;;;;5.63;4.57;;;4.60;99.90;;;;;;5068080;28;20177;-61
2021/04/12 09:17:53;;;;;;;5.30;4.47;;;4.60;99.90;;;;;;5067249;28;20181;-61
2021/04/12 09:20:35;;;;;;;6.15;5.55;;;4.70;99.90;;;;;;5067529;28;20199;-61
2021/04/12 09:23:06;;;;;;;7.47;5.80;;;4.70;99.90;;;;;;5066310;28;20211;-62
2021/04/12 09:25:38;;;;;;;6.38;5.18;;;4.60;99.90;;;;;;5068708;28;20847;-62
2021/04/12 09:28:12;;;;;;;8.18;5.70;;;4.60;99.90;;;;;;5059297;28;20282;-61
2021/04/12 09:30:59;;;;;;;7.18;5.80;;;4.60;99.90;;;;;;5071010;28;20181;-61
2021/04/12 09:34:03;;;;;;;7.80;6.07;;;4.70;99.90;;;;;;5071897;28;20707;-62
2021/04/12 09:36:50;;;;;;;6.70;5.80;;;4.80;99.90;;;;;;5064071;28;20199;-61
2021/04/12 09:40:07;;;;;;;8.48;6.22;;;4.80;99.90;;;;;;5071088;28;20190;-61
2021/04/12 09:43:17;;;;;;;8.45;6.53;;;4.80;99.90;;;;;;5053475;28;20302;-62
2021/04/12 09:45:55;;;;;;;8.35;6.60;;;4.80;99.90;;;;;;5070150;28;20205;-61
2021/04/12 09:48:31;;;;;;;7.60;6.38;;;4.80;99.90;;;;;;5071759;28;20177;-61
2021/04/12 09:51:35;;;;;;;7.78;6.15;;;4.80;99.90;;;;;;5056966;28;20204;-62
2021/04/12 09:54:34;;;;;;;12.98;6.43;;;4.80;99.90;;;;;;5070386;28;20616;-62
2021/04/12 09:57:34;;;;;;;7.68;6.13;;;4.80;99.90;;;;;;5071192;28;20184;-61
2021/04/12 10:00:26;;;;;;;8.68;6.95;;;4.80;99.90;;;;;;5069861;28;20193;-61
2021/04/12 10:03:19;;;;;;;8.55;6.60;;;4.80;99.90;;;;;;5062437;28;20760;-61
2021/04/12 10:06:09;;;;;;;9.90;7.10;;;4.70;99.90;;;;;;5060338;28;20300;-61
2021/04/12 10:09:01;;;;;;;9.75;7.05;;;4.80;99.90;;;;;;5069842;28;20721;-62
2021/04/12 10:11:50;;;;;;;8.25;6.75;;;4.90;99.90;;;;;;5071392;28;20601;-67
2021/04/12 10:14:24;;;;;;;9.05;6.95;;;4.90;99.90;;;;;;5070675;28;20250;-68
2021/04/12 10:17:01;;;;;;;9.88;7.60;;;5.00;99.90;;;;;;5071147;28;20270;-68
2021/04/12 10:19:50;;;;;;;9.43;7.47;;;4.90;99.90;;;;;;5069116;28;20188;-68
2021/04/12 10:22:21;;;;;;;11.55;7.50;;;4.90;99.90;;;;;;5070700;28;20193;-67
2021/04/12 10:25:00;;;;;;;9.63;7.40;;;5.00;99.90;;;;;;5069986;28;20557;-67
2021/04/12 10:27:36;;;;;;;9.60;7.00;;;5.00;99.90;;;;;;5069151;28;20213;-68
2021/04/12 10:30:09;;;;;;;12.65;7.68;;;5.00;99.90;;;;;;5069548;28;20515;-67
2021/04/12 10:32:43;;;;;;;9.65;7.72;;;4.90;99.90;;;;;;5068007;28;20168;-66
2021/04/12 10:35:15;;;;;;;9.68;7.47;;;4.90;99.90;;;;;;5071531;28;20291;-68
2021/04/12 10:37:48;;;;;;;11.00;7.65;;;4.90;99.90;;;;;;5077669;28;20546;-67
2021/04/12 10:40:38;;;;;;;11.20;8.50;;;5.00;99.90;;;;;;5067224;28;20212;-68
2021/04/12 10:43:24;;;;;;;11.93;8.55;;;5.00;99.90;;;;;;5067108;28;20867;-72
2021/04/12 10:46:12;;;;;;;11.00;7.75;;;5.20;99.90;;;;;;5069850;28;20222;-72
2021/04/12 10:48:54;;;;;;;10.52;8.00;;;5.30;99.90;;;;;;5066113;28;20176;-72
2021/04/12 10:52:00;;;;;;;10.73;7.60;;;5.50;99.90;;;;;;5068137;28;20765;-72
2021/04/12 10:54:28;;;;;;;10.02;7.50;;;5.40;99.90;;;;;;5046312;28;20200;-70
2021/04/12 10:57:12;;;;;;;12.10;8.30;;;5.50;99.90;;;;;;5068852;28;20631;-72
2021/04/12 10:59:56;;;;;;;12.20;9.27;;;5.60;99.90;;;;;;5066935;28;20307;-67
2021/04/12 11:02:43;;;;;;;10.85;8.02;;;5.50;99.90;;;;;;5067658;28;20292;-70
2021/04/12 11:05:13;;;;;;;10.50;8.07;;;5.60;99.90;;;;;;5067808;28;20228;-70
2021/04/12 11:08:05;;;;;;;10.48;8.00;;;5.50;99.90;;;;;;5066366;28;20674;-66
2021/04/12 11:10:56;;;;;;;11.27;8.57;;;5.40;99.90;;;;;;5069779;28;20178;-66
2021/04/12 11:13:36;;;;;;;10.25;8.00;;;5.30;99.90;;;;;;5069597;28;20177;-67
2021/04/12 11:16:25;;;;;;;10.82;8.23;;;5.20;99.90;;;;;;5064093;28;20289;-66
2021/04/12 11:19:09;;;;;;;11.75;8.65;;;5.10;99.90;;;;;;5057313;28;20189;-66
2021/04/12 11:22:02;;;;;;;14.40;8.48;;;5.00;99.90;;;;;;5069482;28;20270;-66
2021/04/12 11:24:54;;;;;;;10.50;8.00;;;5.10;99.90;;;;;;5069576;28;20201;-66
2021/04/12 11:27:47;;;;;;;11.48;8.52;;;5.10;99.90;;;;;;5058259;28;20178;-67
2021/04/12 11:30:34;;;;;;;11.70;8.30;;;5.00;99.90;;;;;;5068171;28;20216;-68
2021/04/12 11:33:11;;;;;;;11.05;7.78;;;5.00;99.90;;;;;;5068951;28;20223;-68
2021/04/12 11:35:47;;;;;;;11.30;7.97;;;4.90;99.90;;;;;;5064964;28;20184;-69
2021/04/12 11:38:16;;;;;;;11.50;8.63;;;4.90;99.90;;;;;;5075046;28;20189;-67
2021/04/12 11:40:59;;;;;;;10.70;7.95;;;5.00;99.90;;;;;;5058345;28;20269;-71
2021/04/12 11:43:28;;;;;;;9.73;7.65;;;5.00;99.90;;;;;;5059875;28;20185;-67
2021/04/12 11:46:23;;;;;;;9.30;7.20;;;5.00;99.90;;;;;;5058751;28;20201;-67
2021/04/12 11:48:53;;;;;;;9.38;6.32;;;5.10;99.90;;;;;;5055888;28;20201;-68
2021/04/12 11:51:39;;;;;;;7.90;6.13;;;5.10;99.90;;;;;;5062569;28;20181;-72
2021/04/12 11:54:09;;;;;;;8.95;6.00;;;5.10;99.90;;;;;;5067083;28;20173;-73
2021/04/12 11:56:57;;;;;;;6.93;5.93;;;5.30;99.90;;;;;;5068700;28;20185;-67
2021/04/12 12:00:09;;;;;;;6.95;5.97;;;5.40;99.90;;;;;;5067820;28;20192;-71
2021/04/12 12:02:51;;;;;;;7.70;5.32;;;5.60;99.90;;;;;;5047969;28;20993;-65
2021/04/12 12:05:35;;;;;;;7.50;5.80;;;5.80;99.90;;;;;;5068445;28;20208;-66
2021/04/12 12:08:17;;;;;;;6.68;5.95;;;5.80;99.90;;;;;;5062272;28;20216;-66
2021/04/12 12:11:14;;;;;;;8.18;6.68;;;5.80;99.90;;;;;;5063985;28;20253;-61
2021/04/12 12:14:10;;;;;;;9.65;6.00;;;5.70;99.90;;;;;;5060944;28;20240;-66
2021/04/12 12:16:42;;;;;;;7.97;5.88;;;5.60;99.90;;;;;;5060485;28;20930;-61
2021/04/12 12:19:43;;;;;;;9.35;6.95;;;5.60;99.90;;;;;;5061611;28;20211;-60
2021/04/12 12:22:41;;;;;;;9.35;6.95;;;5.60;99.90;;;;;;5059235;28;20177;-62
2021/04/12 12:25:20;;;;;;;9.25;6.80;;;5.60;99.90;;;;;;5019766;28;20247;-61
2021/04/12 12:28:22;;;;;;;8.95;6.60;;;5.40;99.90;;;;;;5058664;28;20196;-61
2021/04/12 12:31:35;;;;;;;7.65;6.25;;;5.50;99.90;;;;;;5059660;28;20925;-61
2021/04/12 12:34:36;;;;;;;6.93;5.53;;;5.50;99.90;;;;;;5059765;28;20208;-61
2021/04/12 12:37:01;;;;;;;7.43;5.13;;;5.60;99.90;;;;;;5059927;28;20176;-61
2021/04/12 12:39:39;;;;;;;6.70;4.73;;;5.60;99.90;;;;;;5056118;28;20197;-62
2021/04/12 12:42:31;;;;;;;5.75;4.95;;;5.60;90.60;;;;;;5059761;28;20184;-61
2021/04/12 12:45:06;;;;;;;5.75;4.95;;;5.60;89.30;;;;;;5057878;28;20205;-61
2021/04/12 12:47:34;;;;;;;5.80;4.97;;;5.50;84.20;;;;;;5058801;28;20184;-61
2021/04/12 12:50:04;;;;;;;6.13;4.85;;;5.50;97.30;;;;;;5059838;28;20177;-62
2021/04/12 12:52:45;;;;;;;7.68;5.28;;;5.50;99.50;;;;;;5059723;28;20190;-62
2021/04/12 12:55:22;;;;;;;6.22;4.90;;;5.50;98.50;;;;;;5057987;28;20185;-62
2021/04/12 12:57:49;;;;;;;7.75;5.15;;;5.70;99.90;;;;;;5059838;28;20185;-61
2021/04/12 13:00:17;;;;;;;5.20;4.57;;;5.80;99.90;;;;;;5059739;28;20196;-62
2021/04/12 13:02:44;;;;;;;4.50;3.90;;;5.80;99.40;;;;;;5061986;28;20711;-62
2021/04/12 13:05:19;;;;;;;5.65;4.72;;;5.90;80.10;;;;;;5063627;28;20208;-62
2021/04/12 13:07:48;;;;;;;5.93;4.05;;;6.00;73.90;;;;;;5062242;28;20184;-61
2021/04/12 13:10:34;;;;;;;7.78;4.60;;;5.90;64.50;;;;;;5070537;28;20178;-63
2021/04/12 13:13:01;;;;;;;5.10;4.25;;;6.00;71.20;;;;;;5066027;28;20178;-62
2021/04/12 13:15:33;;;;;;;7.47;4.50;;;6.00;60.50;;;;;;5070567;28;20635;-62
2021/04/12 13:18:20;;;;;;;5.75;4.50;;;6.00;66.10;;;;;;5071461;28;20189;-62
2021/04/12 13:20:49;;;;;;;6.15;5.50;;;6.10;77.40;;;;;;5058823;28;20292;-62
2021/04/12 13:23:15;;;;;;;5.05;4.55;;;6.20;72.60;;;;;;5070032;28;20570;-62
2021/04/12 13:25:46;;;;;;;8.00;5.10;;;6.30;49.10;;;;;;5071463;28;20214;-66
2021/04/12 13:28:30;;;;;;;5.93;5.10;;;6.30;65.90;;;;;;5071123;28;20229;-65
2021/04/12 13:31:12;;;;;;;6.22;4.85;;;6.30;77.20;;;;;;5070208;28;20282;-66
2021/04/12 13:33:49;;;;;;;5.65;4.93;;;6.30;83.00;;;;;;5071066;28;20189;-68
2021/04/12 13:36:24;;;;;;;4.65;3.92;;;6.40;58.70;;;;;;5069475;28;20186;-66
2021/04/12 13:38:53;;;;;;;4.40;4.00;;;6.50;53.90;;;;;;5071850;28;20182;-66
2021/04/12 13:41:31;;;;;;;5.68;4.38;;;6.60;44.90;;;;;;5067253;28;20188;-65
2021/04/12 13:44:06;;;;;;;5.10;4.23;;;6.70;44.60;;;;;;5062610;28;20624;-66
2021/04/12 13:47:01;;;;;;;5.00;4.10;;;6.70;44.70;;;;;;5062839;28;20979;-69
2021/04/12 13:49:44;;;;;;;3.20;2.90;;;6.70;48.40;;;;;;5059342;28;20286;-66
2021/04/12 13:52:21;;;;;;;3.92;3.05;;;6.80;39.40;;;;;;5062958;28;20417;-65
2021/04/12 13:55:06;;;;;;;5.55;2.95;;;6.90;18.50;;;;;;5062026;28;20672;-65
2021/04/12 13:57:41;;;;;;;3.30;3.00;;;6.80;4.60;;;;;;5061868;28;20178;-66
2021/04/12 14:00:19;;;;;;;5.85;3.10;;;6.70;1.00;;;;;;5062573;28;20648;-67
2021/04/12 14:03:00;;;;;;;3.72;3.40;;;6.80;15.80;;;;;;5061737;28;20280;-65
2021/04/12 14:05:33;;;;;;;3.80;3.47;;;6.90;10.10;;;;;;5062690;28;20218;-66
2021/04/12 14:08:15;;;;;;;4.10;3.80;;;7.00;13.20;;;;;;5062094;28;20463;-66
2021/04/12 14:10:55;;;;;;;4.28;3.72;;;7.10;12.20;;;;;;5062815;28;20411;-66
2021/04/12 14:13:42;;;;;;;3.77;3.47;;;7.00;14.20;;;;;;5061917;28;20176;-68
2021/04/12 14:16:17;;;;;;;5.40;3.87;;;7.00;17.20;;;;;;5061412;28;21422;-66
2021/04/12 14:19:01;;;;;;;5.75;4.60;;;7.00;11.40;;;;;;5061878;28;20495;-68
2021/04/12 14:21:34;;;;;;;5.03;4.47;;;7.00;21.60;;;;;;5060258;28;20765;-65
2021/04/12 14:24:03;;;;;;;5.80;4.75;;;7.00;30.00;;;;;;5061800;28;20210;-66
2021/04/12 14:26:50;;;;;;;5.93;4.27;;;7.00;38.40;;;;;;5062162;28;20237;-66
2021/04/12 14:29:28;;;;;;;4.18;3.78;;;6.90;44.00;;;;;;5061499;28;20448;-66
2021/04/12 14:32:02;;;;;;;6.18;4.38;;;6.80;42.20;;;;;;5061721;28;20178;-65